EGHI Airport Information

Runway Information
Runway 02 Length 5653 ft width 121 ft
Elevation 31 ft Threshold 240 ft Heading 19
Runway 20 Length 5653 ft Width 121 ft
Elevation 44 ft Threshold 145 ft Heading 199
Airport Frequencies
Type APP Name APP Frequency 128.85 MHZ
Type ATIS Name ATIS Frequency 113.35 MHZ
Type GND Name GND Frequency 121.775 MHZ
Type OPS Name OPS Frequency 130.65 MHZ
Type TWR Name TWR Frequency 118.2 MHZ
Airport Navaids
Type NDB Name Southampton Frequency 392 KHZ
Type VOR-DME Name Southampton Frequency 113350 KHZ
Airport Weather Information & NOTAM
ADDS - METARS form results

(0054 UTC 02 December 2021)
Data provider http://aviationweather.gov/metar/data/
 
Forecast for: EGHI (SOUTHAMPTON WX C, GB)
Text: TAF EGHI 011955Z 0121/0123 35008KT 9999 BKN035
Forecast period: 2100 to 2300 UTC 01 December 2021
Forecast type: FROM: standard forecast or significant change
Winds: from the N (350 degrees) at 9 MPH (8 knots; 4.1 m/s)
Visibility: 6 or more miles (10+ km)
Ceiling: 3500 feet AGL
Clouds: broken clouds at 3500 feet AGL
Weather: no significant weather forecast for this period
Text: PROB30
Forecast period: 2100 to 2200 UTC 01 December 2021
Forecast type: TEMPORARY: The following changes expected for less than half the time period
Visibility: 4 miles (6 km)
Ceiling: 1400 feet AGL
Clouds: broken clouds at 1400 feet AGL
Weather: RA  (moderate rain)